sensor_id;sensor_type;location;lat;lon;timestamp;temperature;humidity
46440;DHT22;32138;50.966;6.968;2022-11-02T00:00:40;14.70;82.00
46440;DHT22;32138;50.966;6.968;2022-11-02T00:01:42;14.70;82.10
46440;DHT22;32138;50.966;6.968;2022-11-02T00:02:44;14.70;82.30
46440;DHT22;32138;50.966;6.968;2022-11-02T00:03:44;14.70;82.30
46440;DHT22;32138;50.966;6.968;2022-11-02T00:04:45;14.80;82.30
46440;DHT22;32138;50.966;6.968;2022-11-02T00:05:46;14.80;82.70
46440;DHT22;32138;50.966;6.968;2022-11-02T00:06:47;14.80;81.80
46440;DHT22;32138;50.966;6.968;2022-11-02T00:07:48;14.90;82.00
46440;DHT22;32138;50.966;6.968;2022-11-02T00:08:49;14.80;82.10
46440;DHT22;32138;50.966;6.968;2022-11-02T00:09:49;14.70;82.00
46440;DHT22;32138;50.966;6.968;2022-11-02T00:10:50;14.70;82.30
46440;DHT22;32138;50.966;6.968;2022-11-02T00:11:51;14.80;82.30
46440;DHT22;32138;50.966;6.968;2022-11-02T00:12:52;14.80;82.30
46440;DHT22;32138;50.966;6.968;2022-11-02T00:13:52;14.90;82.20
46440;DHT22;32138;50.966;6.968;2022-11-02T00:14:53;14.80;82.00
46440;DHT22;32138;50.966;6.968;2022-11-02T00:15:54;14.70;81.90
46440;DHT22;32138;50.966;6.968;2022-11-02T00:16:55;14.80;82.30
46440;DHT22;32138;50.966;6.968;2022-11-02T00:18:00;14.80;82.40
46440;DHT22;32138;50.966;6.968;2022-11-02T00:19:03;14.80;82.40
46440;DHT22;32138;50.966;6.968;2022-11-02T00:20:05;14.90;82.40
46440;DHT22;32138;50.966;6.968;2022-11-02T00:21:07;14.80;82.40
46440;DHT22;32138;50.966;6.968;2022-11-02T00:22:08;14.80;82.20
46440;DHT22;32138;50.966;6.968;2022-11-02T00:23:10;14.80;82.00
46440;DHT22;32138;50.966;6.968;2022-11-02T00:24:12;14.60;82.40
46440;DHT22;32138;50.966;6.968;2022-11-02T00:25:15;14.60;82.80
46440;DHT22;32138;50.966;6.968;2022-11-02T00:26:17;14.60;83.00
46440;DHT22;32138;50.966;6.968;2022-11-02T00:27:18;14.70;82.90
46440;DHT22;32138;50.966;6.968;2022-11-02T00:28:19;14.60;83.10
46440;DHT22;32138;50.966;6.968;2022-11-02T00:29:20;14.60;83.30
46440;DHT22;32138;50.966;6.968;2022-11-02T00:30:22;14.70;82.70
46440;DHT22;32138;50.966;6.968;2022-11-02T00:31:23;14.70;83.00
46440;DHT22;32138;50.966;6.968;2022-11-02T00:32:25;14.70;83.40
46440;DHT22;32138;50.966;6.968;2022-11-02T00:33:26;14.70;83.10
46440;DHT22;32138;50.966;6.968;2022-11-02T00:34:27;14.60;83.10
46440;DHT22;32138;50.966;6.968;2022-11-02T00:35:27;14.60;83.30
46440;DHT22;32138;50.966;6.968;2022-11-02T00:36:28;14.60;83.20
46440;DHT22;32138;50.966;6.968;2022-11-02T00:37:30;14.60;83.40
46440;DHT22;32138;50.966;6.968;2022-11-02T00:38:31;14.60;83.30
46440;DHT22;32138;50.966;6.968;2022-11-02T00:39:32;14.60;83.30
46440;DHT22;32138;50.966;6.968;2022-11-02T00:40:32;14.70;83.00
46440;DHT22;32138;50.966;6.968;2022-11-02T00:41:33;14.70;83.10
46440;DHT22;32138;50.966;6.968;2022-11-02T00:42:34;14.70;83.10
46440;DHT22;32138;50.966;6.968;2022-11-02T00:43:35;14.60;83.10
46440;DHT22;32138;50.966;6.968;2022-11-02T00:44:35;14.60;83.30
46440;DHT22;32138;50.966;6.968;2022-11-02T00:45:36;14.60;83.30
46440;DHT22;32138;50.966;6.968;2022-11-02T00:46:37;14.60;83.00
46440;DHT22;32138;50.966;6.968;2022-11-02T00:47:37;14.60;83.10
46440;DHT22;32138;50.966;6.968;2022-11-02T00:48:38;14.70;83.00
46440;DHT22;32138;50.966;6.968;2022-11-02T00:49:39;14.70;83.00
46440;DHT22;32138;50.966;6.968;2022-11-02T00:50:40;14.70;83.10
46440;DHT22;32138;50.966;6.968;2022-11-02T00:51:41;14.70;83.10
46440;DHT22;32138;50.966;6.968;2022-11-02T00:52:42;14.70;83.20
46440;DHT22;32138;50.966;6.968;2022-11-02T00:53:43;14.60;83.30
46440;DHT22;32138;50.966;6.968;2022-11-02T00:54:44;14.60;83.30
46440;DHT22;32138;50.966;6.968;2022-11-02T00:55:44;14.60;83.00
46440;DHT22;32138;50.966;6.968;2022-11-02T00:56:46;14.70;83.20
46440;DHT22;32138;50.966;6.968;2022-11-02T00:57:47;14.70;83.10
46440;DHT22;32138;50.966;6.968;2022-11-02T00:58:48;14.70;83.10
46440;DHT22;32138;50.966;6.968;2022-11-02T00:59:49;14.60;83.20
46440;DHT22;32138;50.966;6.968;2022-11-02T01:00:49;14.60;83.10
46440;DHT22;32138;50.966;6.968;2022-11-02T01:01:50;14.60;83.10
46440;DHT22;32138;50.966;6.968;2022-11-02T01:02:51;14.70;83.30
46440;DHT22;32138;50.966;6.968;2022-11-02T01:03:52;14.70;83.40
46440;DHT22;32138;50.966;6.968;2022-11-02T01:04:55;14.80;83.20
46440;DHT22;32138;50.966;6.968;2022-11-02T01:05:56;14.70;82.80
46440;DHT22;32138;50.966;6.968;2022-11-02T01:06:57;14.70;82.90
46440;DHT22;32138;50.966;6.968;2022-11-02T01:07:57;14.60;82.90
46440;DHT22;32138;50.966;6.968;2022-11-02T01:08:58;14.60;83.20
46440;DHT22;32138;50.966;6.968;2022-11-02T01:09:59;14.40;83.70
46440;DHT22;32138;50.966;6.968;2022-11-02T01:11:15;14.40;84.10
46440;DHT22;32138;50.966;6.968;2022-11-02T01:12:16;14.50;83.60
46440;DHT22;32138;50.966;6.968;2022-11-02T01:13:17;14.50;83.70
46440;DHT22;32138;50.966;6.968;2022-11-02T01:14:18;14.50;84.30
46440;DHT22;32138;50.966;6.968;2022-11-02T01:15:19;14.50;83.90
46440;DHT22;32138;50.966;6.968;2022-11-02T01:16:20;14.50;83.60
46440;DHT22;32138;50.966;6.968;2022-11-02T01:17:20;14.50;83.50
46440;DHT22;32138;50.966;6.968;2022-11-02T01:18:21;14.60;83.50
46440;DHT22;32138;50.966;6.968;2022-11-02T01:19:23;14.50;83.50
46440;DHT22;32138;50.966;6.968;2022-11-02T01:20:24;14.50;83.70
46440;DHT22;32138;50.966;6.968;2022-11-02T01:21:25;14.50;83.70
46440;DHT22;32138;50.966;6.968;2022-11-02T01:22:26;14.60;83.60
46440;DHT22;32138;50.966;6.968;2022-11-02T01:23:30;14.70;83.60
46440;DHT22;32138;50.966;6.968;2022-11-02T01:24:32;14.70;83.60
46440;DHT22;32138;50.966;6.968;2022-11-02T01:25:33;14.70;83.60
46440;DHT22;32138;50.966;6.968;2022-11-02T01:26:34;14.70;84.30
46440;DHT22;32138;50.966;6.968;2022-11-02T01:27:34;14.70;84.40
46440;DHT22;32138;50.966;6.968;2022-11-02T01:28:35;14.80;83.50
46440;DHT22;32138;50.966;6.968;2022-11-02T01:29:36;14.70;83.20
46440;DHT22;32138;50.966;6.968;2022-11-02T01:30:37;14.70;83.30
46440;DHT22;32138;50.966;6.968;2022-11-02T01:31:38;14.60;83.30
46440;DHT22;32138;50.966;6.968;2022-11-02T01:32:39;14.60;83.50
46440;DHT22;32138;50.966;6.968;2022-11-02T01:33:46;14.60;84.40
46440;DHT22;32138;50.966;6.968;2022-11-02T01:34:46;14.60;84.40
46440;DHT22;32138;50.966;6.968;2022-11-02T01:35:47;14.60;83.70
46440;DHT22;32138;50.966;6.968;2022-11-02T01:36:48;14.60;83.80
46440;DHT22;32138;50.966;6.968;2022-11-02T01:37:49;14.60;83.80
46440;DHT22;32138;50.966;6.968;2022-11-02T01:38:49;14.60;83.50
46440;DHT22;32138;50.966;6.968;2022-11-02T01:39:50;14.70;83.80
46440;DHT22;32138;50.966;6.968;2022-11-02T01:40:51;14.60;84.20
46440;DHT22;32138;50.966;6.968;2022-11-02T01:41:52;14.50;83.80
46440;DHT22;32138;50.966;6.968;2022-11-02T01:42:53;14.60;83.70
46440;DHT22;32138;50.966;6.968;2022-11-02T01:43:56;14.80;83.50
46440;DHT22;32138;50.966;6.968;2022-11-02T01:44:58;14.80;83.40
46440;DHT22;32138;50.966;6.968;2022-11-02T01:48:14;14.80;82.90
46440;DHT22;32138;50.966;6.968;2022-11-02T01:49:17;14.80;83.10
46440;DHT22;32138;50.966;6.968;2022-11-02T01:50:24;14.70;83.20
46440;DHT22;32138;50.966;6.968;2022-11-02T01:51:32;14.70;83.70
46440;DHT22;32138;50.966;6.968;2022-11-02T01:52:37;14.70;83.50
46440;DHT22;32138;50.966;6.968;2022-11-02T01:53:41;14.60;83.40
46440;DHT22;32138;50.966;6.968;2022-11-02T01:55:14;14.70;84.30
46440;DHT22;32138;50.966;6.968;2022-11-02T01:56:20;14.70;83.50
46440;DHT22;32138;50.966;6.968;2022-11-02T01:57:24;14.60;83.60
46440;DHT22;32138;50.966;6.968;2022-11-02T01:58:26;14.50;83.90
46440;DHT22;32138;50.966;6.968;2022-11-02T01:59:31;14.60;84.20
46440;DHT22;32138;50.966;6.968;2022-11-02T02:00:34;14.70;84.00
46440;DHT22;32138;50.966;6.968;2022-11-02T02:01:36;14.60;84.30
46440;DHT22;32138;50.966;6.968;2022-11-02T02:03:22;14.70;83.90
46440;DHT22;32138;50.966;6.968;2022-11-02T02:04:11;14.70;83.50
46440;DHT22;32138;50.966;6.968;2022-11-02T02:05:13;14.60;83.60
46440;DHT22;32138;50.966;6.968;2022-11-02T02:06:15;14.60;84.00
46440;DHT22;32138;50.966;6.968;2022-11-02T02:07:18;14.70;83.80
46440;DHT22;32138;50.966;6.968;2022-11-02T02:08:19;14.80;83.70
46440;DHT22;32138;50.966;6.968;2022-11-02T02:09:23;14.70;83.50
46440;DHT22;32138;50.966;6.968;2022-11-02T02:10:24;14.80;83.60
46440;DHT22;32138;50.966;6.968;2022-11-02T02:11:37;14.80;83.40
46440;DHT22;32138;50.966;6.968;2022-11-02T02:12:40;14.70;83.60
46440;DHT22;32138;50.966;6.968;2022-11-02T02:13:41;14.60;83.90
46440;DHT22;32138;50.966;6.968;2022-11-02T02:14:42;14.60;84.00
46440;DHT22;32138;50.966;6.968;2022-11-02T02:16:14;14.80;83.70
46440;DHT22;32138;50.966;6.968;2022-11-02T02:17:53;14.90;83.20
46440;DHT22;32138;50.966;6.968;2022-11-02T02:18:59;14.70;83.60
46440;DHT22;32138;50.966;6.968;2022-11-02T02:21:24;14.60;83.90
46440;DHT22;32138;50.966;6.968;2022-11-02T02:23:17;14.70;84.10
46440;DHT22;32138;50.966;6.968;2022-11-02T02:27:30;14.50;84.60
46440;DHT22;32138;50.966;6.968;2022-11-02T02:29:20;14.40;84.90
46440;DHT22;32138;50.966;6.968;2022-11-02T02:30:22;14.50;84.70
46440;DHT22;32138;50.966;6.968;2022-11-02T02:31:34;14.60;84.90
46440;DHT22;32138;50.966;6.968;2022-11-02T02:34:32;14.70;84.80
46440;DHT22;32138;50.966;6.968;2022-11-02T02:35:51;14.60;84.80
46440;DHT22;32138;50.966;6.968;2022-11-02T02:38:04;14.60;85.00
46440;DHT22;32138;50.966;6.968;2022-11-02T02:39:13;14.60;85.30
46440;DHT22;32138;50.966;6.968;2022-11-02T02:40:32;14.50;85.50
46440;DHT22;32138;50.966;6.968;2022-11-02T02:41:53;14.60;85.20
46440;DHT22;32138;50.966;6.968;2022-11-02T02:43:12;14.60;85.10
46440;DHT22;32138;50.966;6.968;2022-11-02T02:44:20;14.60;85.30
46440;DHT22;32138;50.966;6.968;2022-11-02T02:45:54;14.40;85.50
46440;DHT22;32138;50.966;6.968;2022-11-02T02:47:05;14.40;85.90
46440;DHT22;32138;50.966;6.968;2022-11-02T02:48:21;14.40;86.00
46440;DHT22;32138;50.966;6.968;2022-11-02T02:49:32;14.40;86.10
46440;DHT22;32138;50.966;6.968;2022-11-02T02:51:01;14.40;86.20
46440;DHT22;32138;50.966;6.968;2022-11-02T02:52:05;14.40;86.50
46440;DHT22;32138;50.966;6.968;2022-11-02T02:53:07;14.50;86.10
46440;DHT22;32138;50.966;6.968;2022-11-02T02:54:23;14.50;86.10
46440;DHT22;32138;50.966;6.968;2022-11-02T02:55:30;14.40;86.10
46440;DHT22;32138;50.966;6.968;2022-11-02T02:56:39;14.40;86.50
46440;DHT22;32138;50.966;6.968;2022-11-02T02:57:45;14.40;86.70
46440;DHT22;32138;50.966;6.968;2022-11-02T02:58:54;14.40;86.70
46440;DHT22;32138;50.966;6.968;2022-11-02T03:00:00;14.40;86.30
46440;DHT22;32138;50.966;6.968;2022-11-02T03:01:04;14.40;86.30
46440;DHT22;32138;50.966;6.968;2022-11-02T03:02:07;14.40;86.60
46440;DHT22;32138;50.966;6.968;2022-11-02T03:03:19;14.40;86.40
46440;DHT22;32138;50.966;6.968;2022-11-02T03:04:21;14.40;86.40
46440;DHT22;32138;50.966;6.968;2022-11-02T03:05:31;14.40;86.50
46440;DHT22;32138;50.966;6.968;2022-11-02T03:06:34;14.40;86.40
46440;DHT22;32138;50.966;6.968;2022-11-02T03:07:35;14.50;86.60
46440;DHT22;32138;50.966;6.968;2022-11-02T03:08:38;14.50;86.10
46440;DHT22;32138;50.966;6.968;2022-11-02T03:09:43;14.50;86.10
46440;DHT22;32138;50.966;6.968;2022-11-02T03:11:01;14.50;86.70
46440;DHT22;32138;50.966;6.968;2022-11-02T03:16:09;14.40;86.00
46440;DHT22;32138;50.966;6.968;2022-11-02T03:22:01;14.70;85.80
46440;DHT22;32138;50.966;6.968;2022-11-02T03:23:25;14.50;85.80
46440;DHT22;32138;50.966;6.968;2022-11-02T03:27:18;14.60;85.70
46440;DHT22;32138;50.966;6.968;2022-11-02T03:29:03;14.50;86.00
46440;DHT22;32138;50.966;6.968;2022-11-02T03:30:14;14.50;86.30
46440;DHT22;32138;50.966;6.968;2022-11-02T03:31:39;14.50;86.40
46440;DHT22;32138;50.966;6.968;2022-11-02T03:33:21;14.60;86.30
46440;DHT22;32138;50.966;6.968;2022-11-02T03:34:33;14.60;86.40
46440;DHT22;32138;50.966;6.968;2022-11-02T03:35:43;14.60;86.00
46440;DHT22;32138;50.966;6.968;2022-11-02T03:36:55;14.60;86.00
46440;DHT22;32138;50.966;6.968;2022-11-02T03:39:31;14.70;86.40
46440;DHT22;32138;50.966;6.968;2022-11-02T03:40:40;14.70;85.90
46440;DHT22;32138;50.966;6.968;2022-11-02T03:41:43;14.70;85.80
46440;DHT22;32138;50.966;6.968;2022-11-02T03:42:46;14.80;85.90
46440;DHT22;32138;50.966;6.968;2022-11-02T03:43:50;14.70;85.50
46440;DHT22;32138;50.966;6.968;2022-11-02T03:44:58;14.70;86.40
46440;DHT22;32138;50.966;6.968;2022-11-02T03:46:02;14.60;86.20
46440;DHT22;32138;50.966;6.968;2022-11-02T03:47:09;14.50;86.20
46440;DHT22;32138;50.966;6.968;2022-11-02T03:48:12;14.60;86.70
46440;DHT22;32138;50.966;6.968;2022-11-02T03:49:17;14.50;86.00
46440;DHT22;32138;50.966;6.968;2022-11-02T03:50:21;14.50;86.50
46440;DHT22;32138;50.966;6.968;2022-11-02T03:51:23;14.50;86.30
46440;DHT22;32138;50.966;6.968;2022-11-02T03:52:28;14.50;87.10
46440;DHT22;32138;50.966;6.968;2022-11-02T03:55:52;14.60;85.80
46440;DHT22;32138;50.966;6.968;2022-11-02T03:56:58;14.50;86.00
46440;DHT22;32138;50.966;6.968;2022-11-02T03:58:02;14.60;86.20
46440;DHT22;32138;50.966;6.968;2022-11-02T03:59:03;14.70;85.80
46440;DHT22;32138;50.966;6.968;2022-11-02T04:00:13;14.60;85.50
46440;DHT22;32138;50.966;6.968;2022-11-02T04:01:15;14.60;85.80
46440;DHT22;32138;50.966;6.968;2022-11-02T04:02:17;14.50;86.00
46440;DHT22;32138;50.966;6.968;2022-11-02T04:03:20;14.50;86.40
46440;DHT22;32138;50.966;6.968;2022-11-02T04:04:22;14.50;87.00
46440;DHT22;32138;50.966;6.968;2022-11-02T04:05:28;14.50;86.10
46440;DHT22;32138;50.966;6.968;2022-11-02T04:06:35;14.50;86.10
46440;DHT22;32138;50.966;6.968;2022-11-02T04:07:37;14.50;86.20
46440;DHT22;32138;50.966;6.968;2022-11-02T04:08:59;14.60;86.00
46440;DHT22;32138;50.966;6.968;2022-11-02T04:09:59;14.50;86.20
46440;DHT22;32138;50.966;6.968;2022-11-02T04:11:00;14.50;86.00
46440;DHT22;32138;50.966;6.968;2022-11-02T04:12:19;14.60;85.90
46440;DHT22;32138;50.966;6.968;2022-11-02T04:13:39;14.60;85.80
46440;DHT22;32138;50.966;6.968;2022-11-02T04:14:58;14.60;85.90
46440;DHT22;32138;50.966;6.968;2022-11-02T04:16:00;14.50;85.90
46440;DHT22;32138;50.966;6.968;2022-11-02T04:17:01;14.60;85.40
46440;DHT22;32138;50.966;6.968;2022-11-02T04:18:20;14.60;85.60
46440;DHT22;32138;50.966;6.968;2022-11-02T04:19:40;14.60;85.10
46440;DHT22;32138;50.966;6.968;2022-11-02T04:20:40;14.50;84.70
46440;DHT22;32138;50.966;6.968;2022-11-02T04:21:41;14.60;84.70
46440;DHT22;32138;50.966;6.968;2022-11-02T04:23:02;14.60;84.60
46440;DHT22;32138;50.966;6.968;2022-11-02T04:24:21;14.60;84.80
46440;DHT22;32138;50.966;6.968;2022-11-02T04:25:40;14.70;84.50
46440;DHT22;32138;50.966;6.968;2022-11-02T04:26:41;14.60;84.60
46440;DHT22;32138;50.966;6.968;2022-11-02T04:27:42;14.70;83.80
46440;DHT22;32138;50.966;6.968;2022-11-02T04:28:52;14.70;84.80
46440;DHT22;32138;50.966;6.968;2022-11-02T04:29:52;14.70;84.20
46440;DHT22;32138;50.966;6.968;2022-11-02T04:30:53;14.60;84.10
46440;DHT22;32138;50.966;6.968;2022-11-02T04:31:54;14.60;84.30
46440;DHT22;32138;50.966;6.968;2022-11-02T04:32:55;14.70;83.80
46440;DHT22;32138;50.966;6.968;2022-11-02T04:34:14;14.60;84.00
46440;DHT22;32138;50.966;6.968;2022-11-02T04:35:15;14.60;83.80
46440;DHT22;32138;50.966;6.968;2022-11-02T04:36:15;14.70;84.00
46440;DHT22;32138;50.966;6.968;2022-11-02T04:37:16;14.70;83.70
46440;DHT22;32138;50.966;6.968;2022-11-02T04:38:35;14.70;83.60
46440;DHT22;32138;50.966;6.968;2022-11-02T04:39:39;14.60;83.20
46440;DHT22;32138;50.966;6.968;2022-11-02T04:40:40;14.50;83.00
46440;DHT22;32138;50.966;6.968;2022-11-02T04:41:41;14.60;83.20
46440;DHT22;32138;50.966;6.968;2022-11-02T04:42:45;14.60;83.40
46440;DHT22;32138;50.966;6.968;2022-11-02T04:43:46;14.70;82.40
46440;DHT22;32138;50.966;6.968;2022-11-02T04:44:47;14.70;82.40
46440;DHT22;32138;50.966;6.968;2022-11-02T04:45:47;14.60;81.80
46440;DHT22;32138;50.966;6.968;2022-11-02T04:46:50;14.60;82.00
46440;DHT22;32138;50.966;6.968;2022-11-02T04:47:51;14.70;81.60
46440;DHT22;32138;50.966;6.968;2022-11-02T04:48:52;14.60;81.50
46440;DHT22;32138;50.966;6.968;2022-11-02T04:49:53;14.70;81.50
46440;DHT22;32138;50.966;6.968;2022-11-02T04:50:54;14.60;81.30
46440;DHT22;32138;50.966;6.968;2022-11-02T04:51:54;14.80;81.40
46440;DHT22;32138;50.966;6.968;2022-11-02T04:52:59;14.90;80.90
46440;DHT22;32138;50.966;6.968;2022-11-02T04:54:01;14.90;80.70
46440;DHT22;32138;50.966;6.968;2022-11-02T04:55:03;14.90;80.80
46440;DHT22;32138;50.966;6.968;2022-11-02T04:56:04;14.80;80.00
46440;DHT22;32138;50.966;6.968;2022-11-02T04:57:05;14.70;79.60
46440;DHT22;32138;50.966;6.968;2022-11-02T04:58:06;14.60;80.50
46440;DHT22;32138;50.966;6.968;2022-11-02T04:59:06;14.60;80.60
46440;DHT22;32138;50.966;6.968;2022-11-02T05:00:07;14.60;80.60
46440;DHT22;32138;50.966;6.968;2022-11-02T05:01:13;14.60;80.60
46440;DHT22;32138;50.966;6.968;2022-11-02T05:02:14;14.60;80.20
46440;DHT22;32138;50.966;6.968;2022-11-02T05:03:15;14.60;80.40
46440;DHT22;32138;50.966;6.968;2022-11-02T05:04:16;14.60;79.40
46440;DHT22;32138;50.966;6.968;2022-11-02T05:05:17;14.50;80.20
46440;DHT22;32138;50.966;6.968;2022-11-02T05:06:20;14.60;80.70
46440;DHT22;32138;50.966;6.968;2022-11-02T05:07:21;14.70;80.20
46440;DHT22;32138;50.966;6.968;2022-11-02T05:08:22;14.70;79.80
46440;DHT22;32138;50.966;6.968;2022-11-02T05:09:22;14.60;80.20
46440;DHT22;32138;50.966;6.968;2022-11-02T05:10:23;14.60;80.00
46440;DHT22;32138;50.966;6.968;2022-11-02T05:11:24;14.60;80.40
46440;DHT22;32138;50.966;6.968;2022-11-02T05:12:25;14.60;80.20
46440;DHT22;32138;50.966;6.968;2022-11-02T05:13:26;14.70;80.80
46440;DHT22;32138;50.966;6.968;2022-11-02T05:14:26;14.70;80.10
46440;DHT22;32138;50.966;6.968;2022-11-02T05:15:27;14.80;79.70
46440;DHT22;32138;50.966;6.968;2022-11-02T05:16:28;14.60;79.70
46440;DHT22;32138;50.966;6.968;2022-11-02T05:17:29;14.50;80.50
46440;DHT22;32138;50.966;6.968;2022-11-02T05:18:30;14.50;80.60
46440;DHT22;32138;50.966;6.968;2022-11-02T05:19:31;14.50;80.20
46440;DHT22;32138;50.966;6.968;2022-11-02T05:20:32;14.50;80.50
46440;DHT22;32138;50.966;6.968;2022-11-02T05:21:32;14.60;80.20
46440;DHT22;32138;50.966;6.968;2022-11-02T05:22:33;14.70;80.10
46440;DHT22;32138;50.966;6.968;2022-11-02T05:23:34;14.80;79.80
46440;DHT22;32138;50.966;6.968;2022-11-02T05:24:34;14.70;79.70
46440;DHT22;32138;50.966;6.968;2022-11-02T05:25:35;14.60;79.70
46440;DHT22;32138;50.966;6.968;2022-11-02T05:26:36;14.50;80.60
46440;DHT22;32138;50.966;6.968;2022-11-02T05:27:37;14.50;80.50
46440;DHT22;32138;50.966;6.968;2022-11-02T05:28:38;14.50;80.30
46440;DHT22;32138;50.966;6.968;2022-11-02T05:29:39;14.60;80.30
46440;DHT22;32138;50.966;6.968;2022-11-02T05:30:39;14.50;80.30
46440;DHT22;32138;50.966;6.968;2022-11-02T05:31:40;14.40;80.80
46440;DHT22;32138;50.966;6.968;2022-11-02T05:32:41;14.40;80.60
46440;DHT22;32138;50.966;6.968;2022-11-02T05:33:42;14.40;80.70
46440;DHT22;32138;50.966;6.968;2022-11-02T05:34:42;14.40;80.60
46440;DHT22;32138;50.966;6.968;2022-11-02T05:35:43;14.50;80.80
46440;DHT22;32138;50.966;6.968;2022-11-02T05:36:47;14.60;80.50
46440;DHT22;32138;50.966;6.968;2022-11-02T05:37:48;14.50;80.30
46440;DHT22;32138;50.966;6.968;2022-11-02T05:38:53;14.60;80.50
46440;DHT22;32138;50.966;6.968;2022-11-02T05:39:54;14.70;80.10
46440;DHT22;32138;50.966;6.968;2022-11-02T05:40:56;14.70;79.70
46440;DHT22;32138;50.966;6.968;2022-11-02T05:41:58;14.60;80.00
46440;DHT22;32138;50.966;6.968;2022-11-02T05:42:59;14.60;80.30
46440;DHT22;32138;50.966;6.968;2022-11-02T05:44:00;14.60;80.10
46440;DHT22;32138;50.966;6.968;2022-11-02T05:45:01;14.50;80.00
46440;DHT22;32138;50.966;6.968;2022-11-02T05:46:02;14.50;79.80
46440;DHT22;32138;50.966;6.968;2022-11-02T05:47:03;14.50;80.20
46440;DHT22;32138;50.966;6.968;2022-11-02T05:48:04;14.50;80.20
46440;DHT22;32138;50.966;6.968;2022-11-02T05:49:08;14.50;80.30
46440;DHT22;32138;50.966;6.968;2022-11-02T05:50:09;14.50;80.20
46440;DHT22;32138;50.966;6.968;2022-11-02T05:51:10;14.50;80.40
46440;DHT22;32138;50.966;6.968;2022-11-02T05:52:11;14.50;81.00
46440;DHT22;32138;50.966;6.968;2022-11-02T05:53:11;14.50;80.60
46440;DHT22;32138;50.966;6.968;2022-11-02T05:54:12;14.50;81.20
46440;DHT22;32138;50.966;6.968;2022-11-02T05:55:13;14.50;80.80
46440;DHT22;32138;50.966;6.968;2022-11-02T05:56:14;14.50;81.30
46440;DHT22;32138;50.966;6.968;2022-11-02T05:57:14;14.50;81.40
46440;DHT22;32138;50.966;6.968;2022-11-02T05:58:16;14.50;80.80
46440;DHT22;32138;50.966;6.968;2022-11-02T05:59:17;14.40;80.60
46440;DHT22;32138;50.966;6.968;2022-11-02T06:00:18;14.50;80.30
46440;DHT22;32138;50.966;6.968;2022-11-02T06:01:20;14.50;80.30
46440;DHT22;32138;50.966;6.968;2022-11-02T06:02:20;14.60;80.40
46440;DHT22;32138;50.966;6.968;2022-11-02T06:03:21;14.60;80.00
46440;DHT22;32138;50.966;6.968;2022-11-02T06:04:22;14.60;80.20
46440;DHT22;32138;50.966;6.968;2022-11-02T06:05:24;14.70;80.10
46440;DHT22;32138;50.966;6.968;2022-11-02T06:06:25;14.70;79.90
46440;DHT22;32138;50.966;6.968;2022-11-02T06:07:26;14.60;80.00
46440;DHT22;32138;50.966;6.968;2022-11-02T06:08:27;14.60;80.00
46440;DHT22;32138;50.966;6.968;2022-11-02T06:09:28;14.70;80.40
46440;DHT22;32138;50.966;6.968;2022-11-02T06:10:29;14.70;79.60
46440;DHT22;32138;50.966;6.968;2022-11-02T06:11:30;14.70;79.60
46440;DHT22;32138;50.966;6.968;2022-11-02T06:12:31;14.70;79.40
46440;DHT22;32138;50.966;6.968;2022-11-02T06:13:32;14.60;79.70
46440;DHT22;32138;50.966;6.968;2022-11-02T06:14:33;14.60;79.90
46440;DHT22;32138;50.966;6.968;2022-11-02T06:15:34;14.50;80.20
46440;DHT22;32138;50.966;6.968;2022-11-02T06:16:35;14.50;80.50
46440;DHT22;32138;50.966;6.968;2022-11-02T06:17:39;14.50;80.50
46440;DHT22;32138;50.966;6.968;2022-11-02T06:18:40;14.60;80.20
46440;DHT22;32138;50.966;6.968;2022-11-02T06:19:40;14.60;80.10
46440;DHT22;32138;50.966;6.968;2022-11-02T06:20:41;14.50;80.40
46440;DHT22;32138;50.966;6.968;2022-11-02T06:21:42;14.50;80.20
46440;DHT22;32138;50.966;6.968;2022-11-02T06:22:43;14.60;80.30
46440;DHT22;32138;50.966;6.968;2022-11-02T06:23:48;14.50;80.30
46440;DHT22;32138;50.966;6.968;2022-11-02T06:24:49;14.40;80.30
46440;DHT22;32138;50.966;6.968;2022-11-02T06:25:56;14.40;80.60
46440;DHT22;32138;50.966;6.968;2022-11-02T06:26:58;14.40;80.70
46440;DHT22;32138;50.966;6.968;2022-11-02T06:27:58;14.30;80.60
46440;DHT22;32138;50.966;6.968;2022-11-02T06:28:59;14.20;80.90
46440;DHT22;32138;50.966;6.968;2022-11-02T06:30:00;14.30;81.00
46440;DHT22;32138;50.966;6.968;2022-11-02T06:31:02;14.40;80.80
46440;DHT22;32138;50.966;6.968;2022-11-02T06:32:02;14.40;80.30
46440;DHT22;32138;50.966;6.968;2022-11-02T06:33:03;14.40;80.60
46440;DHT22;32138;50.966;6.968;2022-11-02T06:34:04;14.30;80.80
46440;DHT22;32138;50.966;6.968;2022-11-02T06:35:05;14.40;80.80
46440;DHT22;32138;50.966;6.968;2022-11-02T06:36:06;14.40;80.40
46440;DHT22;32138;50.966;6.968;2022-11-02T06:37:07;14.50;80.30
46440;DHT22;32138;50.966;6.968;2022-11-02T06:38:08;14.50;80.30
46440;DHT22;32138;50.966;6.968;2022-11-02T06:39:09;14.50;80.10
46440;DHT22;32138;50.966;6.968;2022-11-02T06:40:11;14.50;80.30
46440;DHT22;32138;50.966;6.968;2022-11-02T06:41:12;14.50;80.00
46440;DHT22;32138;50.966;6.968;2022-11-02T06:42:13;14.50;80.40
46440;DHT22;32138;50.966;6.968;2022-11-02T06:43:14;14.30;80.60
46440;DHT22;32138;50.966;6.968;2022-11-02T06:44:15;14.20;81.00
46440;DHT22;32138;50.966;6.968;2022-11-02T06:45:15;14.20;80.90
46440;DHT22;32138;50.966;6.968;2022-11-02T06:46:16;14.20;81.00
46440;DHT22;32138;50.966;6.968;2022-11-02T06:47:17;14.20;81.60
46440;DHT22;32138;50.966;6.968;2022-11-02T06:48:17;14.30;80.60
46440;DHT22;32138;50.966;6.968;2022-11-02T06:49:18;14.30;81.10
46440;DHT22;32138;50.966;6.968;2022-11-02T06:50:20;14.40;80.80
46440;DHT22;32138;50.966;6.968;2022-11-02T06:51:24;14.30;80.50
46440;DHT22;32138;50.966;6.968;2022-11-02T06:52:27;14.30;80.90
46440;DHT22;32138;50.966;6.968;2022-11-02T06:53:31;14.30;80.90
46440;DHT22;32138;50.966;6.968;2022-11-02T06:54:32;14.30;80.90
46440;DHT22;32138;50.966;6.968;2022-11-02T06:55:33;14.30;80.90
46440;DHT22;32138;50.966;6.968;2022-11-02T06:56:34;14.40;80.90
46440;DHT22;32138;50.966;6.968;2022-11-02T06:57:35;14.40;80.90
46440;DHT22;32138;50.966;6.968;2022-11-02T06:58:36;14.20;81.00
46440;DHT22;32138;50.966;6.968;2022-11-02T06:59:37;14.30;81.00
46440;DHT22;32138;50.966;6.968;2022-11-02T07:00:38;14.30;80.80
46440;DHT22;32138;50.966;6.968;2022-11-02T07:01:39;14.30;81.00
46440;DHT22;32138;50.966;6.968;2022-11-02T07:02:39;14.20;81.30
46440;DHT22;32138;50.966;6.968;2022-11-02T07:03:40;14.30;81.20
46440;DHT22;32138;50.966;6.968;2022-11-02T07:04:41;14.30;81.00
46440;DHT22;32138;50.966;6.968;2022-11-02T07:05:42;14.30;81.10
46440;DHT22;32138;50.966;6.968;2022-11-02T07:06:49;14.20;81.20
46440;DHT22;32138;50.966;6.968;2022-11-02T07:07:52;14.30;81.30
46440;DHT22;32138;50.966;6.968;2022-11-02T07:08:53;14.40;81.00
46440;DHT22;32138;50.966;6.968;2022-11-02T07:09:54;14.20;81.20